createdAt,value
2023-11-12T00:00:51.735Z,8.50
2023-11-12T00:03:19.894Z,7.50
2023-11-12T00:05:47.964Z,8.25
2023-11-12T00:08:16.008Z,8.25
2023-11-12T00:10:44.050Z,8.50
2023-11-12T00:13:12.136Z,10.50
2023-11-12T00:15:42.452Z,13.00
2023-11-12T00:18:10.544Z,13.00
2023-11-12T00:20:38.616Z,13.00
2023-11-12T00:23:10.007Z,12.75
2023-11-12T00:25:38.033Z,12.25
2023-11-12T00:28:06.619Z,12.25
2023-11-12T00:30:34.616Z,13.75
2023-11-12T00:33:04.128Z,11.00
2023-11-12T00:35:32.127Z,11.75
2023-11-12T00:38:00.566Z,10.50
2023-11-12T00:40:28.780Z,12.00
2023-11-12T00:42:58.242Z,12.25
2023-11-12T00:45:26.247Z,10.00
2023-11-12T00:47:54.209Z,10.50
2023-11-12T00:50:23.591Z,10.25
2023-11-12T00:52:51.648Z,10.25
2023-11-12T00:55:19.636Z,11.00
2023-11-12T00:57:47.616Z,11.50
2023-11-12T01:00:16.506Z,9.25
2023-11-12T01:02:44.761Z,9.75
2023-11-12T01:05:12.940Z,8.25
2023-11-12T01:07:42.540Z,9.00
2023-11-12T01:10:11.162Z,9.25
2023-11-12T01:12:39.228Z,9.25
2023-11-12T01:15:10.030Z,8.50
2023-11-12T01:17:38.386Z,8.75
2023-11-12T01:20:11.436Z,9.00
2023-11-12T01:22:39.478Z,8.75
2023-11-12T01:25:09.787Z,8.00
2023-11-12T01:27:37.871Z,8.50
2023-11-12T01:30:09.138Z,8.50
2023-11-12T01:32:37.150Z,8.00
2023-11-12T01:35:06.339Z,9.25
2023-11-12T01:37:34.274Z,8.00
2023-11-12T01:40:02.384Z,6.50
2023-11-12T01:42:32.597Z,8.50
2023-11-12T01:45:01.138Z,9.00
2023-11-12T01:47:29.175Z,8.50
2023-11-12T01:49:57.352Z,9.00
2023-11-12T01:52:25.304Z,6.75
2023-11-12T01:54:53.330Z,8.25
2023-11-12T01:57:21.384Z,8.50
2023-11-12T01:59:50.759Z,7.50
2023-11-12T02:02:19.005Z,7.75
2023-11-12T02:04:47.090Z,7.75
2023-11-12T02:07:15.068Z,8.50
2023-11-12T02:09:43.534Z,8.50
2023-11-12T02:12:14.700Z,6.75
2023-11-12T02:14:42.743Z,8.00
2023-11-12T02:17:12.331Z,7.75
2023-11-12T02:19:40.418Z,7.50
2023-11-12T02:22:08.680Z,7.25
2023-11-12T02:24:39.389Z,8.25
2023-11-12T02:27:07.733Z,8.50
2023-11-12T02:29:35.702Z,7.25
2023-11-12T02:32:04.666Z,7.50
2023-11-12T02:34:32.708Z,7.25
2023-11-12T02:37:01.454Z,7.25
2023-11-12T02:39:29.504Z,7.00
2023-11-12T02:42:00.262Z,7.50
2023-11-12T02:44:28.256Z,5.50
2023-11-12T02:46:56.283Z,7.50
2023-11-12T02:49:33.311Z,7.00
2023-11-12T02:52:01.318Z,7.50
2023-11-12T02:54:29.273Z,6.25
2023-11-12T02:56:58.590Z,6.25
2023-11-12T02:59:26.547Z,8.00
2023-11-12T03:01:55.114Z,6.75
2023-11-12T03:04:23.107Z,6.75
2023-11-12T03:06:51.115Z,7.00
2023-11-12T03:09:19.193Z,6.50
2023-11-12T03:11:47.306Z,5.75
2023-11-12T03:14:18.973Z,6.50
2023-11-12T03:16:47.086Z,7.00
2023-11-12T03:19:16.043Z,5.00
2023-11-12T03:21:44.046Z,7.25
2023-11-12T03:24:12.066Z,6.50
2023-11-12T03:26:40.037Z,6.50
2023-11-12T03:29:07.980Z,6.25
2023-11-12T03:31:37.341Z,6.50
2023-11-12T03:34:05.463Z,7.50
2023-11-12T03:36:33.392Z,6.50
2023-11-12T03:39:01.375Z,6.00
2023-11-12T03:41:29.426Z,6.00
2023-11-12T03:43:57.350Z,7.25
2023-11-12T03:46:25.348Z,6.50
2023-11-12T03:48:54.702Z,5.25
2023-11-12T03:51:22.735Z,6.75
2023-11-12T03:53:50.913Z,7.25
2023-11-12T03:56:19.167Z,6.50
2023-11-12T03:58:47.310Z,6.75
2023-11-12T04:01:15.356Z,6.50
2023-11-12T04:03:43.478Z,5.50
2023-11-12T04:06:13.224Z,6.00
2023-11-12T04:08:41.186Z,5.50
2023-11-12T04:11:09.224Z,6.25
2023-11-12T04:13:37.196Z,6.50
2023-11-12T04:16:06.857Z,6.50
2023-11-12T04:18:36.083Z,7.25
2023-11-12T04:21:05.138Z,6.25
2023-11-12T04:23:34.483Z,5.75
2023-11-12T04:26:02.885Z,5.50
2023-11-12T04:28:30.864Z,5.75
2023-11-12T04:30:58.942Z,5.50
2023-11-12T04:33:26.951Z,4.00
2023-11-12T04:35:54.953Z,5.75
2023-11-12T04:38:22.933Z,6.50
2023-11-12T04:40:52.257Z,6.25
2023-11-12T04:43:20.825Z,6.75
2023-11-12T04:45:49.062Z,4.75
2023-11-12T04:48:17.177Z,5.50
2023-11-12T04:50:45.131Z,4.75
2023-11-12T04:53:13.098Z,5.50
2023-11-12T04:55:41.020Z,7.50
2023-11-12T04:58:10.375Z,4.75
2023-11-12T05:00:40.629Z,5.25
2023-11-12T05:03:08.835Z,5.50
2023-11-12T05:05:37.466Z,5.00
2023-11-12T05:08:05.903Z,5.50
2023-11-12T05:10:44.705Z,4.50
2023-11-12T05:13:15.347Z,6.25
2023-11-12T05:15:43.419Z,6.00
2023-11-12T05:18:11.878Z,5.75
2023-11-12T05:20:40.048Z,5.50
2023-11-12T05:23:08.607Z,5.50
2023-11-12T05:25:36.619Z,5.25
2023-11-12T05:28:07.121Z,5.25
2023-11-12T05:30:36.953Z,5.50
2023-11-12T05:33:05.241Z,4.75
2023-11-12T05:35:33.252Z,5.25
2023-11-12T05:38:01.199Z,6.00
2023-11-12T05:40:30.568Z,6.50
2023-11-12T05:42:59.065Z,5.50
2023-11-12T05:45:27.188Z,6.50
2023-11-12T05:47:56.637Z,6.50
2023-11-12T05:50:25.392Z,7.50
2023-11-12T05:52:53.991Z,6.25
2023-11-12T05:55:21.993Z,7.25
2023-11-12T05:57:50.038Z,6.50
2023-11-12T06:00:18.741Z,5.75
2023-11-12T06:02:46.863Z,5.50
2023-11-12T06:05:16.370Z,7.25
2023-11-12T06:07:44.295Z,6.25
2023-11-12T06:10:14.007Z,7.00
2023-11-12T06:12:42.044Z,6.50
2023-11-12T06:15:11.016Z,7.75
2023-11-12T06:17:39.131Z,7.00
2023-11-12T06:20:09.074Z,7.50
2023-11-12T06:22:38.413Z,7.00
2023-11-12T06:25:12.727Z,6.00
2023-11-12T06:27:40.850Z,6.50
2023-11-12T06:30:11.126Z,6.00
2023-11-12T06:32:39.557Z,6.00
2023-11-12T06:35:08.591Z,5.50
2023-11-12T06:37:38.541Z,5.50
2023-11-12T06:40:07.955Z,6.25
2023-11-12T06:42:35.931Z,6.25
2023-11-12T06:45:03.913Z,7.00
2023-11-12T06:47:31.969Z,6.50
2023-11-12T06:49:59.901Z,5.50
2023-11-12T06:52:27.900Z,6.00
2023-11-12T06:54:57.228Z,6.00
2023-11-12T06:57:25.469Z,5.00
2023-11-12T06:59:53.449Z,5.50
2023-11-12T07:02:21.982Z,4.50
2023-11-12T07:04:50.209Z,6.50
2023-11-12T07:07:18.478Z,5.50
2023-11-12T07:09:47.201Z,5.25
2023-11-12T07:12:17.038Z,4.50
2023-11-12T07:14:45.046Z,4.50
2023-11-12T07:17:13.942Z,5.00
2023-11-12T07:19:42.912Z,4.25
2023-11-12T07:22:11.283Z,5.25
2023-11-12T07:24:39.320Z,5.00
2023-11-12T07:27:08.049Z,4.50
2023-11-12T07:29:37.665Z,5.75
2023-11-12T07:32:06.268Z,5.50
2023-11-12T07:34:34.250Z,4.25
2023-11-12T07:37:02.494Z,3.75
2023-11-12T07:39:30.958Z,4.50
2023-11-12T07:41:58.898Z,5.50
2023-11-12T07:44:26.871Z,5.00
2023-11-12T07:46:56.338Z,5.50
2023-11-12T07:49:24.866Z,4.50
2023-11-12T07:51:53.146Z,4.50
2023-11-12T07:54:21.258Z,4.50
2023-11-12T07:56:49.277Z,4.50
2023-11-12T07:59:17.237Z,3.75
2023-11-12T08:01:45.243Z,4.25
2023-11-12T08:04:14.694Z,3.50
2023-11-12T08:06:42.620Z,4.00
2023-11-12T08:09:10.590Z,4.00
2023-11-12T08:11:41.310Z,4.75
2023-11-12T08:14:10.798Z,4.50
2023-11-12T08:16:39.444Z,4.50
2023-11-12T08:19:08.153Z,4.25
2023-11-12T08:21:37.562Z,4.50
2023-11-12T08:24:06.536Z,3.50
2023-11-12T08:26:39.798Z,3.50
2023-11-12T08:29:08.800Z,4.25
2023-11-12T08:31:37.369Z,5.25
2023-11-12T08:34:05.958Z,3.75
2023-11-12T08:36:34.007Z,4.75
2023-11-12T08:39:05.261Z,4.50
2023-11-12T08:41:34.190Z,3.50
2023-11-12T08:44:02.142Z,4.25
2023-11-12T08:46:30.207Z,4.25
2023-11-12T08:48:58.238Z,3.50
2023-11-12T08:51:26.216Z,3.50
2023-11-12T08:53:54.280Z,4.25
2023-11-12T08:56:23.795Z,3.00
2023-11-12T08:58:51.775Z,2.75
2023-11-12T09:01:19.865Z,3.75
2023-11-12T09:03:47.949Z,3.75
2023-11-12T09:06:16.321Z,2.75
2023-11-12T09:08:44.447Z,3.50
2023-11-12T09:11:15.227Z,3.50
2023-11-12T09:13:46.311Z,4.50
2023-11-12T09:16:15.049Z,3.50
2023-11-12T09:18:43.107Z,3.50
2023-11-12T09:21:11.231Z,4.50
2023-11-12T09:23:39.948Z,3.75
2023-11-12T09:26:08.005Z,4.25
2023-11-12T09:28:36.020Z,2.50
2023-11-12T09:31:06.396Z,3.25
2023-11-12T09:33:34.572Z,3.50
2023-11-12T09:36:02.643Z,4.50
2023-11-12T09:38:30.855Z,3.50
2023-11-12T09:41:00.052Z,3.50
2023-11-12T09:43:28.586Z,4.00
2023-11-12T09:45:58.060Z,3.25
2023-11-12T09:48:32.783Z,3.25
2023-11-12T09:51:01.053Z,3.50
2023-11-12T09:53:30.923Z,3.25
2023-11-12T09:55:59.909Z,4.50
2023-11-12T09:58:27.892Z,3.50
2023-11-12T10:00:56.163Z,3.75
2023-11-12T10:03:24.223Z,3.50
2023-11-12T10:05:53.732Z,4.50
2023-11-12T10:08:22.242Z,5.00
2023-11-12T10:10:50.277Z,4.50
2023-11-12T10:13:19.145Z,4.50
2023-11-12T10:15:47.604Z,4.50
2023-11-12T10:18:15.963Z,4.50
2023-11-12T10:20:45.077Z,4.50
2023-11-12T10:23:32.744Z,4.25
2023-11-12T10:26:03.548Z,4.25
2023-11-12T10:28:35.039Z,4.50
2023-11-12T10:31:03.058Z,4.50
2023-11-12T10:33:31.146Z,5.00
2023-11-12T10:35:59.158Z,4.75
2023-11-12T10:38:28.468Z,4.50
2023-11-12T10:41:02.132Z,4.50
2023-11-12T10:43:31.205Z,4.50
2023-11-12T10:46:00.179Z,5.50
2023-11-12T10:48:34.900Z,6.25
2023-11-12T10:51:04.331Z,5.00
2023-11-12T10:53:34.556Z,5.50
2023-11-12T10:56:02.941Z,4.75
2023-11-12T10:58:31.235Z,4.75
2023-11-12T11:01:00.424Z,4.50
2023-11-12T11:03:30.373Z,5.50
2023-11-12T11:06:00.142Z,4.50
2023-11-12T11:08:29.741Z,4.50
2023-11-12T11:10:59.392Z,4.25
2023-11-12T11:13:27.529Z,6.00
2023-11-12T11:15:57.409Z,5.50
2023-11-12T11:18:53.218Z,4.50
2023-11-12T11:21:21.456Z,5.50
2023-11-12T11:23:53.207Z,3.50
2023-11-12T11:26:30.525Z,5.00
2023-11-12T11:29:14.998Z,4.25
2023-11-12T11:31:44.321Z,4.25
2023-11-12T11:34:13.998Z,5.25
2023-11-12T11:36:44.178Z,4.50
2023-11-12T11:39:26.276Z,4.50
2023-11-12T11:42:14.754Z,5.25
2023-11-12T11:44:43.857Z,4.00
2023-11-12T11:47:14.361Z,4.75
2023-11-12T11:49:46.046Z,4.25
2023-11-12T11:52:19.490Z,4.50
2023-11-12T11:54:47.457Z,3.75
2023-11-12T11:57:20.027Z,4.50
2023-11-12T11:59:49.301Z,4.25
2023-11-12T12:02:19.948Z,3.75
2023-11-12T12:04:49.251Z,3.50
2023-11-12T12:07:24.387Z,3.50
2023-11-12T12:09:53.679Z,3.50
2023-11-12T12:12:24.188Z,3.00
2023-11-12T12:14:53.832Z,4.50
2023-11-12T12:17:22.053Z,4.50
2023-11-12T12:19:53.770Z,4.00
2023-11-12T12:22:25.368Z,3.50
2023-11-12T12:24:56.774Z,4.25
2023-11-12T12:27:26.442Z,3.50
2023-11-12T12:29:56.087Z,3.50
2023-11-12T12:32:26.269Z,3.50
2023-11-12T12:34:57.934Z,3.50
2023-11-12T12:37:26.993Z,4.50
2023-11-12T12:40:01.798Z,4.50
2023-11-12T12:42:31.881Z,3.50
2023-11-12T12:45:00.108Z,3.50
2023-11-12T12:47:35.831Z,4.00
2023-11-12T12:50:17.436Z,3.50
2023-11-12T12:52:47.010Z,3.50
2023-11-12T12:55:17.307Z,3.00
2023-11-12T12:57:50.832Z,3.50
2023-11-12T13:00:21.785Z,2.50
2023-11-12T13:02:50.954Z,2.75
2023-11-12T13:05:22.458Z,2.75
2023-11-12T13:07:51.830Z,3.50
2023-11-12T13:10:21.655Z,3.50
2023-11-12T13:12:51.824Z,3.50
2023-11-12T13:15:20.179Z,3.50
2023-11-12T13:17:48.117Z,3.50
2023-11-12T13:20:16.248Z,2.75
2023-11-12T13:22:44.432Z,4.00
2023-11-12T13:25:13.676Z,3.75
2023-11-12T13:27:45.801Z,3.75
2023-11-12T13:30:16.224Z,4.25
2023-11-12T13:32:44.296Z,4.50
2023-11-12T13:35:12.938Z,3.50
2023-11-12T13:37:41.878Z,3.50
2023-11-12T13:40:14.985Z,3.50
2023-11-12T13:42:43.896Z,3.50
2023-11-12T13:45:12.780Z,4.25
2023-11-12T13:47:43.392Z,4.00
2023-11-12T13:50:14.879Z,4.00
2023-11-12T13:52:44.112Z,4.50
2023-11-12T13:55:12.701Z,3.50
2023-11-12T13:57:40.928Z,4.00
2023-11-12T14:00:12.891Z,3.50
2023-11-12T14:02:42.638Z,4.50
2023-11-12T14:05:12.146Z,3.50
2023-11-12T14:07:41.233Z,4.75
2023-11-12T14:10:11.884Z,4.25
2023-11-12T14:12:44.084Z,4.50
2023-11-12T14:15:16.776Z,4.25
2023-11-12T14:17:46.316Z,4.00
2023-11-12T14:20:21.975Z,5.25
2023-11-12T14:22:52.314Z,5.75
2023-11-12T14:25:21.278Z,4.50
2023-11-12T14:27:50.613Z,4.50
2023-11-12T14:30:19.868Z,5.00
2023-11-12T14:32:52.074Z,5.50
2023-11-12T14:35:23.684Z,4.50
2023-11-12T14:37:51.768Z,5.50
2023-11-12T14:40:20.142Z,4.25
2023-11-12T14:42:48.192Z,5.50
2023-11-12T14:47:46.114Z,5.75
2023-11-12T14:50:17.734Z,4.75
2023-11-12T14:52:45.847Z,5.50
2023-11-12T14:55:24.463Z,5.50
2023-11-12T14:57:55.497Z,5.50
2023-11-12T15:00:29.387Z,5.50
2023-11-12T15:02:58.835Z,4.50
2023-11-12T15:05:28.491Z,4.00
2023-11-12T15:07:56.489Z,4.50
2023-11-12T15:10:24.721Z,4.75
2023-11-12T15:12:52.976Z,4.50
2023-11-12T15:15:22.751Z,3.75
2023-11-12T15:17:53.190Z,4.25
2023-11-12T15:20:21.717Z,5.00
2023-11-12T15:22:51.930Z,5.00
2023-11-12T15:25:20.792Z,4.25
2023-11-12T15:27:49.795Z,5.25
2023-11-12T15:30:18.755Z,4.50
2023-11-12T15:32:47.203Z,4.25
2023-11-12T15:35:15.934Z,5.50
2023-11-12T15:37:44.174Z,4.25
2023-11-12T15:40:19.647Z,5.25
2023-11-12T15:42:49.367Z,5.00
2023-11-12T15:45:18.247Z,4.25
2023-11-12T15:47:47.438Z,4.50
2023-11-12T15:50:15.640Z,6.00
2023-11-12T15:52:45.301Z,4.50
2023-11-12T15:55:14.909Z,5.50
2023-11-12T15:57:43.213Z,5.50
2023-11-12T16:00:15.457Z,4.75
2023-11-12T16:02:44.391Z,5.00
2023-11-12T16:05:13.778Z,4.50
2023-11-12T16:07:42.379Z,4.00
2023-11-12T16:10:12.855Z,5.25
2023-11-12T16:12:42.553Z,5.50
2023-11-12T16:15:14.260Z,4.50
2023-11-12T16:17:43.349Z,4.75
2023-11-12T16:20:13.396Z,5.25
2023-11-12T16:22:42.097Z,5.50
2023-11-12T16:25:10.945Z,6.00
2023-11-12T16:27:39.285Z,5.50
2023-11-12T16:30:13.169Z,7.00
2023-11-12T16:32:41.496Z,6.00
2023-11-12T16:35:11.765Z,5.75
2023-11-12T16:37:46.353Z,6.50
2023-11-12T16:40:16.039Z,5.50
2023-11-12T16:42:47.759Z,5.50
2023-11-12T16:45:17.819Z,5.50
2023-11-12T16:47:46.079Z,6.50
2023-11-12T16:50:17.273Z,6.25
2023-11-12T16:52:45.273Z,5.25
2023-11-12T16:55:13.327Z,6.50
2023-11-12T16:57:41.480Z,6.50
2023-11-12T17:00:11.376Z,6.50
2023-11-12T17:02:40.846Z,6.50
2023-11-12T17:05:09.610Z,6.75
2023-11-12T17:07:37.769Z,7.50
2023-11-12T17:10:06.362Z,6.50
2023-11-12T17:12:34.469Z,8.00
2023-11-12T17:15:03.467Z,6.50
2023-11-12T17:17:31.745Z,5.50
2023-11-12T17:20:01.769Z,7.50
2023-11-12T17:22:30.400Z,6.25
2023-11-12T17:25:01.456Z,7.50
2023-11-12T17:27:31.488Z,8.00
2023-11-12T17:30:00.198Z,8.00
2023-11-12T17:32:29.231Z,7.50
2023-11-12T17:34:57.388Z,7.50
2023-11-12T17:37:27.156Z,6.75
2023-11-12T17:39:55.165Z,7.25
2023-11-12T17:42:23.757Z,8.00
2023-11-12T17:44:53.657Z,8.00
2023-11-12T17:47:25.861Z,7.25
2023-11-12T17:50:01.548Z,5.50
2023-11-12T17:52:32.420Z,7.00
2023-11-12T17:55:01.868Z,6.75
2023-11-12T17:57:34.124Z,7.25
2023-11-12T18:00:04.204Z,7.00
2023-11-12T18:02:32.265Z,7.75
2023-11-12T18:05:00.364Z,6.50
2023-11-12T18:07:29.767Z,6.75
2023-11-12T18:09:59.166Z,7.25
2023-11-12T18:12:27.165Z,7.50
2023-11-12T18:14:56.209Z,8.25
2023-11-12T18:17:24.141Z,7.50
2023-11-12T18:19:52.049Z,6.50
2023-11-12T18:22:21.539Z,8.25
2023-11-12T18:24:49.805Z,8.50
2023-11-12T18:27:19.128Z,8.25
2023-11-12T18:29:47.385Z,8.00
2023-11-12T18:32:15.707Z,8.00
2023-11-12T18:34:47.285Z,8.25
2023-11-12T18:37:15.281Z,7.00
2023-11-12T18:39:43.290Z,7.25
2023-11-12T18:42:11.652Z,7.75
2023-11-12T18:44:40.999Z,9.75
2023-11-12T18:47:09.275Z,7.50
2023-11-12T18:49:37.291Z,11.00
2023-11-12T18:52:05.715Z,9.50
2023-11-12T18:54:33.716Z,9.50
2023-11-12T18:57:01.700Z,8.00
2023-11-12T18:59:30.239Z,10.50
2023-11-12T19:01:59.562Z,10.25
2023-11-12T19:04:28.663Z,10.75
2023-11-12T19:06:57.296Z,9.25
2023-11-12T19:09:26.264Z,10.25
2023-11-12T19:11:54.655Z,10.50
2023-11-12T19:14:23.366Z,11.00
2023-11-12T19:16:54.836Z,10.50
2023-11-12T19:19:25.911Z,9.25
2023-11-12T19:21:57.838Z,9.50
2023-11-12T19:24:25.904Z,10.00
2023-11-12T19:26:53.825Z,10.50
2023-11-12T19:29:21.803Z,12.25
2023-11-12T19:31:50.166Z,10.25
2023-11-12T19:34:18.191Z,10.75
2023-11-12T19:36:47.678Z,10.50
2023-11-12T19:39:15.643Z,11.00
2023-11-12T19:41:43.810Z,9.75
2023-11-12T19:44:11.926Z,11.00
2023-11-12T19:46:42.561Z,10.00
2023-11-12T19:49:11.578Z,10.50
2023-11-12T19:51:40.128Z,10.25
2023-11-12T19:54:09.922Z,10.50
2023-11-12T19:56:40.486Z,10.50
2023-11-12T19:59:08.635Z,12.00
2023-11-12T20:01:36.910Z,11.50
2023-11-12T20:04:07.315Z,14.75
2023-11-12T20:06:36.281Z,13.25
2023-11-12T20:09:04.562Z,13.50
2023-11-12T20:11:34.136Z,13.75
2023-11-12T20:14:04.224Z,14.50
2023-11-12T20:16:34.733Z,12.50
2023-11-12T20:19:03.584Z,11.00
2023-11-12T20:21:31.569Z,9.50
2023-11-12T20:23:59.568Z,11.00
2023-11-12T20:26:27.492Z,10.00
2023-11-12T20:28:56.896Z,9.25
2023-11-12T20:31:25.579Z,9.75
2023-11-12T20:33:56.149Z,9.50
2023-11-12T20:36:24.132Z,12.75
2023-11-12T20:38:52.346Z,10.25
2023-11-12T20:41:21.508Z,10.50
2023-11-12T20:43:49.490Z,9.50
2023-11-12T20:46:19.784Z,10.00
2023-11-12T20:48:48.013Z,11.00
2023-11-12T20:51:16.193Z,10.75
2023-11-12T20:53:44.157Z,11.00
2023-11-12T20:56:14.376Z,9.50
2023-11-12T20:58:42.343Z,9.25
2023-11-12T21:01:11.148Z,10.50
2023-11-12T21:03:42.543Z,10.00
2023-11-12T21:06:10.796Z,9.25
2023-11-12T21:08:40.995Z,9.50
2023-11-12T21:11:11.485Z,9.25
2023-11-12T21:13:39.702Z,8.50
2023-11-12T21:16:08.269Z,8.50
2023-11-12T21:18:36.333Z,8.50
2023-11-12T21:21:06.186Z,9.00
2023-11-12T21:23:34.536Z,10.00
2023-11-12T21:26:02.589Z,9.50
2023-11-12T21:28:30.878Z,10.25
2023-11-12T21:30:59.334Z,11.25
2023-11-12T21:33:27.769Z,9.25
2023-11-12T21:35:55.782Z,9.25
2023-11-12T21:38:25.551Z,8.75
2023-11-12T21:40:53.569Z,11.25
2023-11-12T21:43:21.782Z,9.25
2023-11-12T21:45:51.308Z,8.50
2023-11-12T21:48:20.765Z,8.25
2023-11-12T21:50:49.357Z,9.25
2023-11-12T21:53:17.364Z,8.75
2023-11-12T21:55:46.828Z,8.25
2023-11-12T21:58:15.028Z,9.50
2023-11-12T22:00:44.620Z,9.50
2023-11-12T22:03:16.152Z,7.75
2023-11-12T22:05:44.459Z,9.25
2023-11-12T22:08:12.817Z,8.75
2023-11-12T22:10:40.812Z,9.00
2023-11-12T22:13:10.256Z,8.25
2023-11-12T22:15:38.276Z,7.50
2023-11-12T22:18:06.559Z,7.50
2023-11-12T22:20:38.830Z,8.25
2023-11-12T22:23:06.956Z,7.25
2023-11-12T22:25:34.930Z,8.00
2023-11-12T22:28:03.077Z,9.00
2023-11-12T22:30:32.561Z,7.50
2023-11-12T22:33:00.625Z,7.50
2023-11-12T22:35:28.699Z,9.25
2023-11-12T22:37:56.695Z,7.50
2023-11-12T22:40:24.985Z,7.50
2023-11-12T22:42:53.582Z,9.25
2023-11-12T22:45:23.713Z,8.25
2023-11-12T22:47:53.767Z,8.00
2023-11-12T22:50:23.118Z,7.75
2023-11-12T22:52:51.111Z,7.50
2023-11-12T22:55:20.051Z,7.50
2023-11-12T22:57:48.274Z,7.50
2023-11-12T23:00:37.057Z,8.00
2023-11-12T23:03:13.659Z,7.25
2023-11-12T23:05:42.184Z,7.00
2023-11-12T23:08:10.322Z,8.25
2023-11-12T23:10:38.523Z,7.50
2023-11-12T23:13:07.707Z,6.50
2023-11-12T23:15:35.821Z,7.50
2023-11-12T23:18:05.199Z,7.75
2023-11-12T23:20:35.862Z,6.50
2023-11-12T23:23:04.022Z,7.50
2023-11-12T23:25:32.138Z,6.00
2023-11-12T23:28:00.393Z,6.75
2023-11-12T23:30:29.473Z,7.00
2023-11-12T23:32:57.544Z,6.50
2023-11-12T23:35:27.460Z,6.50
2023-11-12T23:37:56.839Z,7.25
2023-11-12T23:40:24.915Z,7.50
2023-11-12T23:42:52.968Z,6.50
2023-11-12T23:45:20.922Z,7.50
2023-11-12T23:47:48.879Z,7.00
2023-11-12T23:50:16.924Z,7.50
2023-11-12T23:52:45.464Z,7.50
2023-11-12T23:55:15.950Z,6.50
2023-11-12T23:57:44.400Z,7.00
